sensor_id;sensor_type;location;lat;lon;timestamp;P1;durP1;ratioP1;P2;durP2;ratioP2
57535;SDS011;43361;49.790;8.960;2023-01-10T00:03:24;17.65;;;12.35;;
57535;SDS011;43361;49.790;8.960;2023-01-10T00:13:25;19.15;;;12.40;;
57535;SDS011;43361;49.790;8.960;2023-01-10T00:23:26;15.43;;;10.82;;
57535;SDS011;43361;49.790;8.960;2023-01-10T00:33:29;15.18;;;11.52;;
57535;SDS011;43361;49.790;8.960;2023-01-10T00:43:30;16.05;;;10.75;;
57535;SDS011;43361;49.790;8.960;2023-01-10T00:53:50;14.27;;;10.18;;
57535;SDS011;43361;49.790;8.960;2023-01-10T01:03:51;14.32;;;10.00;;
57535;SDS011;43361;49.790;8.960;2023-01-10T01:13:54;12.27;;;9.45;;
57535;SDS011;43361;49.790;8.960;2023-01-10T01:23:54;13.38;;;9.25;;
57535;SDS011;43361;49.790;8.960;2023-01-10T01:33:59;13.68;;;8.00;;
57535;SDS011;43361;49.790;8.960;2023-01-10T01:44:01;10.93;;;8.27;;
57535;SDS011;43361;49.790;8.960;2023-01-10T01:54:03;12.23;;;8.50;;
57535;SDS011;43361;49.790;8.960;2023-01-10T02:04:07;11.43;;;7.93;;
57535;SDS011;43361;49.790;8.960;2023-01-10T02:14:10;10.73;;;7.05;;
57535;SDS011;43361;49.790;8.960;2023-01-10T02:24:16;9.40;;;7.05;;
57535;SDS011;43361;49.790;8.960;2023-01-10T02:34:23;9.38;;;6.50;;
57535;SDS011;43361;49.790;8.960;2023-01-10T02:44:28;9.25;;;6.65;;
57535;SDS011;43361;49.790;8.960;2023-01-10T02:54:32;7.97;;;5.57;;
57535;SDS011;43361;49.790;8.960;2023-01-10T03:04:33;7.47;;;5.75;;
57535;SDS011;43361;49.790;8.960;2023-01-10T03:14:39;7.50;;;5.57;;
57535;SDS011;43361;49.790;8.960;2023-01-10T03:24:40;8.68;;;5.78;;
57535;SDS011;43361;49.790;8.960;2023-01-10T03:34:42;11.50;;;5.78;;
57535;SDS011;43361;49.790;8.960;2023-01-10T03:44:45;7.40;;;5.15;;
57535;SDS011;43361;49.790;8.960;2023-01-10T03:54:48;8.00;;;4.85;;
57535;SDS011;43361;49.790;8.960;2023-01-10T04:04:49;7.47;;;5.18;;
57535;SDS011;43361;49.790;8.960;2023-01-10T04:14:51;7.22;;;4.90;;
57535;SDS011;43361;49.790;8.960;2023-01-10T04:24:52;7.65;;;5.00;;
57535;SDS011;43361;49.790;8.960;2023-01-10T04:34:54;7.72;;;4.60;;
57535;SDS011;43361;49.790;8.960;2023-01-10T04:44:55;7.63;;;4.60;;
57535;SDS011;43361;49.790;8.960;2023-01-10T04:54:57;5.95;;;4.20;;
57535;SDS011;43361;49.790;8.960;2023-01-10T05:04:57;5.60;;;4.18;;
57535;SDS011;43361;49.790;8.960;2023-01-10T05:14:59;6.07;;;4.22;;
57535;SDS011;43361;49.790;8.960;2023-01-10T05:24:59;4.72;;;3.65;;
57535;SDS011;43361;49.790;8.960;2023-01-10T05:35:01;5.38;;;3.65;;
57535;SDS011;43361;49.790;8.960;2023-01-10T05:45:01;3.80;;;3.10;;
57535;SDS011;43361;49.790;8.960;2023-01-10T05:55:04;4.95;;;3.47;;
57535;SDS011;43361;49.790;8.960;2023-01-10T06:05:04;4.90;;;3.50;;
57535;SDS011;43361;49.790;8.960;2023-01-10T06:15:07;6.88;;;3.50;;
57535;SDS011;43361;49.790;8.960;2023-01-10T06:25:08;9.18;;;3.78;;
57535;SDS011;43361;49.790;8.960;2023-01-10T06:35:10;15.93;;;4.85;;
57535;SDS011;43361;49.790;8.960;2023-01-10T06:45:10;10.95;;;4.32;;
57535;SDS011;43361;49.790;8.960;2023-01-10T06:55:12;16.75;;;4.55;;
57535;SDS011;43361;49.790;8.960;2023-01-10T07:05:13;10.38;;;4.68;;
57535;SDS011;43361;49.790;8.960;2023-01-10T07:15:14;17.13;;;5.25;;
57535;SDS011;43361;49.790;8.960;2023-01-10T07:25:15;15.73;;;6.13;;
57535;SDS011;43361;49.790;8.960;2023-01-10T07:35:17;13.63;;;5.25;;
57535;SDS011;43361;49.790;8.960;2023-01-10T07:45:17;20.35;;;6.22;;
57535;SDS011;43361;49.790;8.960;2023-01-10T07:55:19;16.58;;;5.40;;
57535;SDS011;43361;49.790;8.960;2023-01-10T08:05:19;16.77;;;5.45;;
57535;SDS011;43361;49.790;8.960;2023-01-10T08:15:21;15.30;;;5.75;;
57535;SDS011;43361;49.790;8.960;2023-01-10T08:25:22;14.98;;;5.97;;
57535;SDS011;43361;49.790;8.960;2023-01-10T08:35:23;13.07;;;5.43;;
57535;SDS011;43361;49.790;8.960;2023-01-10T08:45:24;17.00;;;5.50;;
57535;SDS011;43361;49.790;8.960;2023-01-10T08:55:26;13.27;;;5.35;;
57535;SDS011;43361;49.790;8.960;2023-01-10T09:05:26;13.60;;;5.22;;
57535;SDS011;43361;49.790;8.960;2023-01-10T09:15:28;11.27;;;5.03;;
57535;SDS011;43361;49.790;8.960;2023-01-10T09:25:29;12.95;;;5.13;;
57535;SDS011;43361;49.790;8.960;2023-01-10T09:35:33;11.68;;;4.65;;
57535;SDS011;43361;49.790;8.960;2023-01-10T09:45:36;10.45;;;4.20;;
57535;SDS011;43361;49.790;8.960;2023-01-10T09:55:39;11.45;;;4.20;;
57535;SDS011;43361;49.790;8.960;2023-01-10T10:05:40;14.82;;;5.05;;
57535;SDS011;43361;49.790;8.960;2023-01-10T10:15:44;11.05;;;4.28;;
57535;SDS011;43361;49.790;8.960;2023-01-10T10:25:49;12.77;;;4.22;;
57535;SDS011;43361;49.790;8.960;2023-01-10T10:35:54;9.52;;;4.38;;
57535;SDS011;43361;49.790;8.960;2023-01-10T10:45:56;11.50;;;3.90;;
57535;SDS011;43361;49.790;8.960;2023-01-10T10:55:59;11.70;;;4.43;;
57535;SDS011;43361;49.790;8.960;2023-01-10T11:06:00;7.85;;;3.80;;
57535;SDS011;43361;49.790;8.960;2023-01-10T11:16:03;51.38;;;15.32;;
57535;SDS011;43361;49.790;8.960;2023-01-10T11:26:04;49.30;;;17.60;;
57535;SDS011;43361;49.790;8.960;2023-01-10T11:36:08;51.05;;;17.60;;
57535;SDS011;43361;49.790;8.960;2023-01-10T11:46:11;60.17;;;17.20;;
57535;SDS011;43361;49.790;8.960;2023-01-10T11:56:21;46.85;;;16.60;;
57535;SDS011;43361;49.790;8.960;2023-01-10T12:06:22;41.33;;;14.07;;
57535;SDS011;43361;49.790;8.960;2023-01-10T12:16:25;36.40;;;13.30;;
57535;SDS011;43361;49.790;8.960;2023-01-10T12:26:26;32.45;;;12.32;;
57535;SDS011;43361;49.790;8.960;2023-01-10T12:36:32;30.50;;;10.63;;
57535;SDS011;43361;49.790;8.960;2023-01-10T12:46:37;27.15;;;10.45;;
57535;SDS011;43361;49.790;8.960;2023-01-10T12:56:41;27.60;;;10.10;;
57535;SDS011;43361;49.790;8.960;2023-01-10T13:06:42;31.35;;;10.15;;
57535;SDS011;43361;49.790;8.960;2023-01-10T13:16:47;31.88;;;9.68;;
57535;SDS011;43361;49.790;8.960;2023-01-10T13:26:49;26.80;;;9.25;;
57535;SDS011;43361;49.790;8.960;2023-01-10T13:36:55;27.52;;;9.68;;
57535;SDS011;43361;49.790;8.960;2023-01-10T13:46:57;28.45;;;9.20;;
57535;SDS011;43361;49.790;8.960;2023-01-10T13:56:59;16.10;;;7.00;;
57535;SDS011;43361;49.790;8.960;2023-01-10T14:07:00;28.83;;;6.72;;
57535;SDS011;43361;49.790;8.960;2023-01-10T14:17:11;23.13;;;7.68;;
57535;SDS011;43361;49.790;8.960;2023-01-10T14:27:13;20.67;;;6.93;;
57535;SDS011;43361;49.790;8.960;2023-01-10T14:37:18;17.15;;;5.93;;
57535;SDS011;43361;49.790;8.960;2023-01-10T14:47:27;13.65;;;5.53;;
57535;SDS011;43361;49.790;8.960;2023-01-10T14:57:29;15.00;;;5.40;;
57535;SDS011;43361;49.790;8.960;2023-01-10T15:07:29;15.32;;;5.63;;
57535;SDS011;43361;49.790;8.960;2023-01-10T15:17:32;15.48;;;5.30;;
57535;SDS011;43361;49.790;8.960;2023-01-10T15:27:33;20.00;;;5.05;;
57535;SDS011;43361;49.790;8.960;2023-01-10T15:37:37;13.93;;;5.38;;
57535;SDS011;43361;49.790;8.960;2023-01-10T15:47:40;19.77;;;5.22;;
57535;SDS011;43361;49.790;8.960;2023-01-10T15:57:44;11.52;;;4.53;;
57535;SDS011;43361;49.790;8.960;2023-01-10T16:07:45;14.45;;;4.68;;
57535;SDS011;43361;49.790;8.960;2023-01-10T16:17:47;20.83;;;4.63;;
57535;SDS011;43361;49.790;8.960;2023-01-10T16:27:48;15.68;;;4.13;;
57535;SDS011;43361;49.790;8.960;2023-01-10T16:37:50;14.68;;;4.82;;
57535;SDS011;43361;49.790;8.960;2023-01-10T16:47:52;24.27;;;4.45;;
57535;SDS011;43361;49.790;8.960;2023-01-10T16:57:54;14.32;;;4.18;;
57535;SDS011;43361;49.790;8.960;2023-01-10T17:07:55;19.95;;;4.40;;
57535;SDS011;43361;49.790;8.960;2023-01-10T17:17:57;21.58;;;4.40;;
57535;SDS011;43361;49.790;8.960;2023-01-10T17:27:58;13.85;;;4.03;;
57535;SDS011;43361;49.790;8.960;2023-01-10T17:37:59;12.50;;;3.80;;
57535;SDS011;43361;49.790;8.960;2023-01-10T17:48:00;16.08;;;4.22;;
57535;SDS011;43361;49.790;8.960;2023-01-10T17:58:02;18.10;;;4.32;;
57535;SDS011;43361;49.790;8.960;2023-01-10T18:08:03;13.60;;;3.92;;
57535;SDS011;43361;49.790;8.960;2023-01-10T18:18:08;18.65;;;4.15;;
57535;SDS011;43361;49.790;8.960;2023-01-10T18:28:08;21.35;;;4.85;;
57535;SDS011;43361;49.790;8.960;2023-01-10T18:38:10;12.38;;;4.00;;
57535;SDS011;43361;49.790;8.960;2023-01-10T18:48:10;15.90;;;4.25;;
57535;SDS011;43361;49.790;8.960;2023-01-10T18:58:14;15.15;;;3.83;;
57535;SDS011;43361;49.790;8.960;2023-01-10T19:08:15;10.48;;;3.55;;
57535;SDS011;43361;49.790;8.960;2023-01-10T19:18:17;12.02;;;4.10;;
57535;SDS011;43361;49.790;8.960;2023-01-10T19:28:17;10.52;;;3.58;;
57535;SDS011;43361;49.790;8.960;2023-01-10T19:38:19;21.42;;;3.90;;
57535;SDS011;43361;49.790;8.960;2023-01-10T19:48:20;13.10;;;3.58;;
57535;SDS011;43361;49.790;8.960;2023-01-10T19:58:22;13.25;;;4.07;;
57535;SDS011;43361;49.790;8.960;2023-01-10T20:08:22;17.27;;;3.85;;
57535;SDS011;43361;49.790;8.960;2023-01-10T20:18:24;13.55;;;3.35;;
57535;SDS011;43361;49.790;8.960;2023-01-10T20:28:24;10.32;;;3.70;;
57535;SDS011;43361;49.790;8.960;2023-01-10T20:38:27;10.15;;;3.20;;
57535;SDS011;43361;49.790;8.960;2023-01-10T20:48:28;9.20;;;3.45;;
57535;SDS011;43361;49.790;8.960;2023-01-10T20:58:29;9.43;;;2.97;;
57535;SDS011;43361;49.790;8.960;2023-01-10T21:08:30;10.57;;;2.97;;
57535;SDS011;43361;49.790;8.960;2023-01-10T21:18:32;9.07;;;2.58;;
57535;SDS011;43361;49.790;8.960;2023-01-10T21:28:34;5.63;;;2.30;;
57535;SDS011;43361;49.790;8.960;2023-01-10T21:38:38;6.32;;;2.33;;
57535;SDS011;43361;49.790;8.960;2023-01-10T21:48:39;9.77;;;2.60;;
57535;SDS011;43361;49.790;8.960;2023-01-10T21:58:41;8.07;;;2.65;;
57535;SDS011;43361;49.790;8.960;2023-01-10T22:08:41;9.32;;;2.40;;
57535;SDS011;43361;49.790;8.960;2023-01-10T22:18:43;8.60;;;2.15;;
57535;SDS011;43361;49.790;8.960;2023-01-10T22:28:43;9.38;;;2.70;;
57535;SDS011;43361;49.790;8.960;2023-01-10T22:38:46;6.25;;;2.38;;
57535;SDS011;43361;49.790;8.960;2023-01-10T22:48:47;5.88;;;2.10;;
57535;SDS011;43361;49.790;8.960;2023-01-10T22:58:49;7.90;;;2.27;;
57535;SDS011;43361;49.790;8.960;2023-01-10T23:08:49;3.05;;;1.67;;
57535;SDS011;43361;49.790;8.960;2023-01-10T23:18:52;9.35;;;1.90;;
57535;SDS011;43361;49.790;8.960;2023-01-10T23:28:52;4.47;;;1.75;;
57535;SDS011;43361;49.790;8.960;2023-01-10T23:38:54;4.13;;;1.75;;
57535;SDS011;43361;49.790;8.960;2023-01-10T23:48:54;3.85;;;1.65;;
57535;SDS011;43361;49.790;8.960;2023-01-10T23:58:56;3.90;;;1.75;;
